ENBL/FDE METAR and TAF weather

Enter ICAO airport designator
Station Type Date Time Source
ENBL METAR 2022/12/05 13:50 UTC NOAA

ENBL 051350Z 00000KT 4000 -SHSN FEW003 SCT008 BKN012 M02/M03 Q1026


Station Type Date Time Source
ENBL Decoded METAR 2022/12/05 13:50 UTC NOAA

Forde / Bringeland, Norway (ENBL) 61-27N 005-52E
Dec 05, 2022 - 08:50 AM EST / 2022.12.05 1350 UTC
Wind: Calm:0
Visibility: 2 mile(s):0
Sky conditions: mostly cloudy
Weather: light snow showers
Temperature: 28 F (-2 C)
Dew Point: 26 F (-3 C)
Relative Humidity: 92%
Pressure (altimeter): 30.30 in. Hg (1026 hPa)
ob: ENBL 051350Z 00000KT 4000 -SHSN FEW003 SCT008 BKN012 M02/M03 Q1026
cycle: 14

Station Type Date Time Source
ENBL TAF UTC NOAA

Error!

Example: see airport list